createdAt,value
2018-09-27T00:01:04.457Z,15.17
2018-09-27T00:03:32.605Z,15.13
2018-09-27T00:06:00.692Z,15.21
2018-09-27T00:08:28.795Z,15.27
2018-09-27T00:10:56.888Z,15.22
2018-09-27T00:13:24.965Z,15.31
2018-09-27T00:15:53.058Z,15.29
2018-09-27T00:18:21.177Z,15.33
2018-09-27T00:20:49.280Z,15.30
2018-09-27T00:23:17.411Z,15.33
2018-09-27T00:25:45.502Z,15.35
2018-09-27T00:28:13.598Z,15.30
2018-09-27T00:30:41.750Z,15.36
2018-09-27T00:33:09.836Z,15.35
2018-09-27T00:35:37.928Z,15.39
2018-09-27T00:38:06.035Z,15.43
2018-09-27T00:40:34.106Z,15.40
2018-09-27T00:43:02.190Z,15.41
2018-09-27T00:45:38.627Z,15.39
2018-09-27T00:48:06.717Z,15.39
2018-09-27T00:50:34.835Z,15.42
2018-09-27T00:53:02.912Z,15.43
2018-09-27T00:55:31.016Z,15.46
2018-09-27T00:57:59.121Z,15.49
2018-09-27T01:00:27.213Z,15.50
2018-09-27T01:02:55.374Z,15.40
2018-09-27T01:05:23.478Z,15.42
2018-09-27T01:07:51.607Z,15.41
2018-09-27T01:10:19.774Z,15.44
2018-09-27T01:12:47.913Z,15.41
2018-09-27T01:15:16.110Z,15.42
2018-09-27T01:17:44.223Z,15.42
2018-09-27T01:20:12.310Z,15.42
2018-09-27T01:22:40.400Z,15.40
2018-09-27T01:25:08.593Z,15.36
2018-09-27T01:27:36.711Z,15.38
2018-09-27T01:30:05.359Z,15.43
2018-09-27T01:32:33.461Z,15.45
2018-09-27T01:35:01.590Z,15.44
2018-09-27T01:37:29.682Z,15.45
2018-09-27T01:39:57.803Z,15.47
2018-09-27T01:42:25.915Z,15.54
2018-09-27T01:44:54.033Z,15.52
2018-09-27T01:47:22.879Z,15.51
2018-09-27T01:49:50.998Z,15.56
2018-09-27T01:52:19.071Z,15.65
2018-09-27T01:54:47.198Z,15.67
2018-09-27T01:57:15.297Z,15.62
2018-09-27T01:59:43.397Z,15.64
2018-09-27T02:02:11.500Z,15.66
2018-09-27T02:04:39.582Z,15.64
2018-09-27T02:07:07.678Z,15.61
2018-09-27T02:09:35.765Z,15.64
2018-09-27T02:12:03.859Z,15.66
2018-09-27T02:14:31.955Z,15.65
2018-09-27T02:17:00.061Z,15.57
2018-09-27T02:19:28.187Z,15.54
2018-09-27T02:21:56.282Z,15.63
2018-09-27T02:24:24.396Z,15.68
2018-09-27T02:26:52.502Z,15.71
2018-09-27T02:29:20.635Z,15.68
2018-09-27T02:31:48.746Z,15.65
2018-09-27T02:34:16.826Z,15.65
2018-09-27T02:36:44.919Z,15.71
2018-09-27T02:39:13.018Z,15.67
2018-09-27T02:41:41.151Z,15.71
2018-09-27T02:44:09.260Z,15.75
2018-09-27T02:46:37.370Z,15.75
2018-09-27T02:49:05.465Z,15.69
2018-09-27T02:51:33.575Z,15.61
2018-09-27T02:54:01.695Z,15.66
2018-09-27T02:56:29.810Z,15.67
2018-09-27T02:58:57.896Z,15.68
2018-09-27T03:01:26.008Z,15.70
2018-09-27T03:03:54.102Z,15.81
2018-09-27T03:06:22.189Z,15.84
2018-09-27T03:08:50.270Z,15.89
2018-09-27T03:11:18.406Z,15.80
2018-09-27T03:13:46.513Z,15.74
2018-09-27T03:16:14.576Z,15.83
2018-09-27T03:18:42.676Z,15.71
2018-09-27T03:21:10.778Z,15.70
2018-09-27T03:23:39.014Z,15.69
2018-09-27T03:26:07.099Z,15.64
2018-09-27T03:28:35.189Z,15.69
2018-09-27T03:31:03.265Z,15.66
2018-09-27T03:33:31.396Z,15.75
2018-09-27T03:35:59.508Z,15.75
2018-09-27T03:38:27.599Z,15.74
2018-09-27T03:40:55.702Z,15.87
2018-09-27T03:43:23.788Z,15.72
2018-09-27T03:45:51.859Z,15.74
2018-09-27T03:48:19.963Z,15.77
2018-09-27T03:50:48.046Z,15.73
2018-09-27T03:53:16.164Z,15.64
2018-09-27T03:55:44.262Z,15.58
2018-09-27T03:58:12.366Z,15.64
2018-09-27T04:00:40.453Z,15.65
2018-09-27T04:03:08.596Z,15.50
2018-09-27T04:05:36.664Z,15.62
2018-09-27T04:08:04.831Z,15.52
2018-09-27T04:10:32.941Z,15.58
2018-09-27T04:13:01.276Z,15.55
2018-09-27T04:15:29.390Z,15.51
2018-09-27T04:17:57.466Z,15.51
2018-09-27T04:20:25.547Z,15.45
2018-09-27T04:22:53.639Z,15.50
2018-09-27T04:25:21.748Z,15.54
2018-09-27T04:27:49.936Z,15.54
2018-09-27T04:30:18.046Z,15.54
2018-09-27T04:32:46.147Z,15.54
2018-09-27T04:35:14.218Z,15.59
2018-09-27T04:37:42.313Z,15.51
2018-09-27T04:40:10.420Z,15.36
2018-09-27T04:42:38.497Z,15.42
2018-09-27T04:45:06.587Z,15.37
2018-09-27T04:47:34.681Z,15.44
2018-09-27T04:50:02.769Z,15.50
2018-09-27T04:52:30.842Z,15.53
2018-09-27T04:54:58.959Z,15.42
2018-09-27T04:57:27.444Z,15.47
2018-09-27T04:59:55.611Z,15.49
2018-09-27T05:02:23.680Z,15.37
2018-09-27T05:04:51.796Z,15.45
2018-09-27T05:07:19.898Z,15.46
2018-09-27T05:09:47.989Z,15.41
2018-09-27T05:12:16.075Z,15.42
2018-09-27T05:14:44.184Z,15.41
2018-09-27T05:17:12.298Z,15.30
2018-09-27T05:19:40.400Z,15.41
2018-09-27T05:22:08.503Z,15.43
2018-09-27T05:24:36.610Z,15.42
2018-09-27T05:27:04.703Z,15.45
2018-09-27T05:29:32.780Z,15.33
2018-09-27T05:32:00.864Z,15.39
2018-09-27T05:34:28.964Z,15.38
2018-09-27T05:36:57.064Z,15.36
2018-09-27T05:39:25.186Z,15.34
2018-09-27T05:41:53.250Z,15.34
2018-09-27T05:44:21.342Z,15.32
2018-09-27T05:46:50.075Z,15.44
2018-09-27T05:49:18.216Z,15.49
2018-09-27T05:51:46.312Z,15.38
2018-09-27T05:54:14.438Z,15.42
2018-09-27T05:56:42.528Z,15.28
2018-09-27T05:59:10.652Z,15.39
2018-09-27T06:01:38.715Z,15.40
2018-09-27T06:04:06.811Z,15.34
2018-09-27T06:06:34.934Z,15.32
2018-09-27T06:09:03.119Z,15.24
2018-09-27T06:11:31.288Z,15.23
2018-09-27T06:13:59.351Z,15.23
2018-09-27T06:16:27.463Z,15.30
2018-09-27T06:18:55.559Z,15.28
2018-09-27T06:21:29.451Z,15.33
2018-09-27T06:23:57.532Z,15.30
2018-09-27T06:26:25.721Z,15.29
2018-09-27T06:28:53.802Z,15.35
2018-09-27T06:31:21.902Z,15.37
2018-09-27T06:33:50.023Z,15.27
2018-09-27T06:36:18.132Z,15.34
2018-09-27T06:38:46.249Z,15.32
2018-09-27T06:41:14.339Z,15.27
2018-09-27T06:43:42.504Z,15.30
2018-09-27T06:46:10.614Z,15.38
2018-09-27T06:48:38.733Z,15.43
2018-09-27T06:51:06.524Z,15.39
2018-09-27T06:53:34.668Z,15.32
2018-09-27T06:56:02.831Z,15.34
2018-09-27T06:58:30.868Z,15.44
2018-09-27T07:00:59.310Z,15.45
2018-09-27T07:03:27.348Z,15.59
2018-09-27T07:05:55.435Z,15.65
2018-09-27T07:08:23.578Z,15.55
2018-09-27T07:10:51.619Z,15.60
2018-09-27T07:13:19.692Z,15.60
2018-09-27T07:15:47.797Z,15.62
2018-09-27T07:18:15.897Z,15.51
2018-09-27T07:20:44.030Z,15.55
2018-09-27T07:23:12.128Z,15.41
2018-09-27T07:25:40.322Z,15.21
2018-09-27T07:28:08.395Z,15.38
2018-09-27T07:30:36.490Z,15.46
2018-09-27T07:33:04.607Z,15.47
2018-09-27T07:35:32.671Z,15.54
2018-09-27T07:38:00.771Z,15.32
2018-09-27T07:40:28.954Z,15.54
2018-09-27T07:42:57.045Z,15.68
2018-09-27T07:45:25.147Z,15.79
2018-09-27T07:47:53.284Z,15.75
2018-09-27T07:50:21.471Z,15.64
2018-09-27T07:52:49.537Z,15.84
2018-09-27T07:55:17.615Z,15.99
2018-09-27T07:57:45.726Z,15.98
2018-09-27T08:00:13.859Z,16.02
2018-09-27T08:02:42.061Z,16.26
2018-09-27T08:05:10.059Z,16.30
2018-09-27T08:07:38.183Z,16.18
2018-09-27T08:10:06.283Z,16.29
2018-09-27T08:12:34.361Z,16.36
2018-09-27T08:15:02.447Z,16.54
2018-09-27T08:17:30.655Z,16.40
2018-09-27T08:19:58.751Z,16.26
2018-09-27T08:22:26.850Z,16.23
2018-09-27T08:24:54.962Z,16.43
2018-09-27T08:27:23.077Z,16.46
2018-09-27T08:29:51.320Z,16.39
2018-09-27T08:32:19.409Z,16.61
2018-09-27T08:34:47.491Z,16.53
2018-09-27T08:37:15.569Z,16.32
2018-09-27T08:39:43.639Z,16.32
2018-09-27T08:42:11.736Z,16.21
2018-09-27T08:44:39.911Z,16.27
2018-09-27T08:47:07.974Z,16.29
2018-09-27T08:49:36.106Z,16.54
2018-09-27T08:52:04.207Z,16.38
2018-09-27T08:54:32.321Z,16.52
2018-09-27T08:57:03.819Z,16.64
2018-09-27T08:59:31.912Z,16.99
2018-09-27T09:02:00.016Z,17.30
2018-09-27T09:04:28.145Z,17.09
2018-09-27T09:06:56.195Z,17.15
2018-09-27T09:09:24.334Z,17.60
2018-09-27T09:11:52.410Z,17.67
2018-09-27T09:14:20.513Z,17.22
2018-09-27T09:16:48.613Z,17.08
2018-09-27T09:19:16.710Z,17.24
2018-09-27T09:21:44.844Z,17.51
2018-09-27T09:24:12.887Z,17.72
2018-09-27T09:26:40.958Z,17.44
2018-09-27T09:29:09.035Z,17.46
2018-09-27T09:31:37.131Z,17.37
2018-09-27T09:34:05.250Z,17.35
2018-09-27T09:36:33.323Z,17.54
2018-09-27T09:39:01.408Z,17.62
2018-09-27T09:41:29.494Z,17.90
2018-09-27T09:43:57.566Z,18.17
2018-09-27T09:46:25.651Z,18.09
2018-09-27T09:48:53.774Z,18.39
2018-09-27T09:51:21.903Z,18.33
2018-09-27T09:53:49.994Z,18.53
2018-09-27T09:56:18.106Z,18.85
2018-09-27T09:58:46.183Z,18.46
2018-09-27T10:01:14.299Z,18.76
2018-09-27T10:03:43.418Z,18.81
2018-09-27T10:06:11.600Z,18.86
2018-09-27T10:08:39.723Z,18.83
2018-09-27T10:11:07.943Z,19.11
2018-09-27T10:13:36.092Z,19.24
2018-09-27T10:16:04.304Z,19.33
2018-09-27T10:18:32.387Z,19.39
2018-09-27T10:21:00.539Z,19.54
2018-09-27T10:23:28.639Z,19.56
2018-09-27T10:25:56.739Z,19.46
2018-09-27T10:28:24.815Z,19.61
2018-09-27T10:30:53.010Z,19.85
2018-09-27T10:33:21.234Z,19.99
2018-09-27T10:35:49.484Z,19.68
2018-09-27T10:38:17.596Z,19.90
2018-09-27T10:40:45.735Z,19.77
2018-09-27T10:43:13.839Z,19.63
2018-09-27T10:45:41.984Z,19.82
2018-09-27T10:48:10.106Z,20.00
2018-09-27T10:50:38.212Z,20.20
2018-09-27T10:53:06.847Z,19.81
2018-09-27T10:55:35.003Z,19.88
2018-09-27T10:58:03.104Z,19.94
2018-09-27T11:00:31.215Z,19.89
2018-09-27T11:02:59.286Z,19.99
2018-09-27T11:05:27.510Z,19.87
2018-09-27T11:07:55.489Z,19.98
2018-09-27T11:10:23.591Z,20.01
2018-09-27T11:12:51.703Z,19.69
2018-09-27T11:15:19.840Z,19.62
2018-09-27T11:17:47.956Z,19.77
2018-09-27T11:20:16.042Z,20.00
2018-09-27T11:22:44.161Z,20.26
2018-09-27T11:25:12.262Z,20.07
2018-09-27T11:27:40.451Z,20.07
2018-09-27T11:30:14.021Z,20.22
2018-09-27T11:32:45.000Z,20.30
2018-09-27T11:35:13.479Z,20.48
2018-09-27T11:37:41.604Z,20.63
2018-09-27T11:40:10.463Z,20.60
2018-09-27T11:42:38.901Z,20.57
2018-09-27T11:45:07.550Z,20.62
2018-09-27T11:47:35.651Z,20.53
2018-09-27T11:50:03.886Z,20.65
2018-09-27T11:52:31.867Z,20.48
2018-09-27T11:54:59.975Z,20.43
2018-09-27T11:57:28.065Z,20.11
2018-09-27T11:59:56.200Z,20.22
2018-09-27T12:02:24.283Z,20.18
2018-09-27T12:04:52.479Z,20.12
2018-09-27T12:07:20.622Z,20.06
2018-09-27T12:09:48.766Z,20.09
2018-09-27T12:12:18.007Z,20.13
2018-09-27T12:14:46.122Z,19.99
2018-09-27T12:17:14.223Z,20.03
2018-09-27T12:19:42.420Z,19.96
2018-09-27T12:22:10.532Z,19.85
2018-09-27T12:24:38.671Z,19.88
2018-09-27T12:27:06.807Z,19.83
2018-09-27T12:29:34.924Z,19.84
2018-09-27T12:32:03.034Z,19.82
2018-09-27T12:34:31.149Z,19.87
2018-09-27T12:36:59.295Z,19.85
2018-09-27T12:39:33.807Z,19.81
2018-09-27T12:42:02.018Z,19.75
2018-09-27T12:44:30.037Z,19.84
2018-09-27T12:46:58.245Z,19.85
2018-09-27T12:49:26.396Z,19.89
2018-09-27T12:51:55.593Z,19.94
2018-09-27T12:54:23.658Z,20.00
2018-09-27T12:56:51.775Z,20.14
2018-09-27T12:59:19.876Z,20.11
2018-09-27T13:01:48.095Z,20.02
2018-09-27T13:04:16.115Z,20.06
2018-09-27T13:06:44.251Z,20.03
2018-09-27T13:09:12.455Z,20.07
2018-09-27T13:11:40.770Z,20.16
2018-09-27T13:14:08.675Z,20.22
2018-09-27T13:16:36.787Z,20.13
2018-09-27T13:19:04.962Z,19.95
2018-09-27T13:21:33.295Z,19.98
2018-09-27T13:24:01.237Z,19.95
2018-09-27T13:26:29.443Z,19.91
2018-09-27T13:28:57.516Z,19.97
2018-09-27T13:31:25.673Z,20.09
2018-09-27T13:33:53.836Z,20.26
2018-09-27T13:36:21.971Z,20.37
2018-09-27T13:38:50.178Z,20.37
2018-09-27T13:41:18.287Z,20.42
2018-09-27T13:43:46.443Z,20.33
2018-09-27T13:46:14.596Z,20.24
2018-09-27T13:48:42.724Z,20.22
2018-09-27T13:51:10.840Z,20.33
2018-09-27T13:53:39.580Z,20.21
2018-09-27T13:56:07.696Z,20.13
2018-09-27T13:58:35.854Z,20.19
2018-09-27T14:01:04.023Z,20.17
2018-09-27T14:03:32.133Z,20.12
2018-09-27T14:06:00.259Z,20.14
2018-09-27T14:08:28.359Z,20.15
2018-09-27T14:10:56.483Z,20.21
2018-09-27T14:13:24.615Z,20.16
2018-09-27T14:15:52.727Z,20.19
2018-09-27T14:18:20.863Z,20.19
2018-09-27T14:20:50.133Z,20.21
2018-09-27T14:23:18.287Z,20.19
2018-09-27T14:25:46.459Z,20.24
2018-09-27T14:28:14.514Z,20.19
2018-09-27T14:30:42.679Z,20.13
2018-09-27T14:33:10.725Z,20.17
2018-09-27T14:35:38.872Z,20.14
2018-09-27T14:38:06.944Z,20.11
2018-09-27T14:40:35.078Z,20.01
2018-09-27T14:43:03.200Z,20.04
2018-09-27T14:45:31.371Z,20.10
2018-09-27T14:47:59.661Z,20.15
2018-09-27T14:50:27.605Z,20.11
2018-09-27T14:52:55.687Z,20.04
2018-09-27T14:55:23.815Z,20.07
2018-09-27T14:57:51.944Z,19.99
2018-09-27T15:00:20.064Z,19.92
2018-09-27T15:02:48.183Z,19.92
2018-09-27T15:05:16.317Z,19.89
2018-09-27T15:07:44.779Z,19.85
2018-09-27T15:10:12.924Z,19.82
2018-09-27T15:12:41.218Z,19.85
2018-09-27T15:15:10.196Z,19.80
2018-09-27T15:17:38.927Z,19.79
2018-09-27T15:20:07.129Z,19.84
2018-09-27T15:22:35.356Z,19.87
2018-09-27T15:25:03.491Z,19.78
2018-09-27T15:27:31.615Z,19.76
2018-09-27T15:29:59.712Z,19.75
2018-09-27T15:32:27.788Z,19.78
2018-09-27T15:34:55.899Z,19.62
2018-09-27T15:37:24.040Z,19.75
2018-09-27T15:39:52.180Z,19.76
2018-09-27T15:42:20.331Z,19.76
2018-09-27T15:44:48.443Z,19.81
2018-09-27T15:47:16.532Z,19.81
2018-09-27T15:49:44.635Z,19.77
2018-09-27T15:52:12.793Z,19.84
2018-09-27T15:54:40.924Z,19.72
2018-09-27T15:57:09.056Z,19.56
2018-09-27T15:59:37.147Z,19.59
2018-09-27T16:02:14.409Z,19.61
2018-09-27T16:04:43.258Z,19.49
2018-09-27T16:07:11.346Z,19.53
2018-09-27T16:09:39.475Z,19.54
2018-09-27T16:12:07.706Z,19.55
2018-09-27T16:14:36.226Z,19.59
2018-09-27T16:17:04.299Z,19.48
2018-09-27T16:19:32.459Z,19.43
2018-09-27T16:22:00.584Z,19.40
2018-09-27T16:24:28.659Z,19.38
2018-09-27T16:26:56.791Z,19.45
2018-09-27T16:29:24.929Z,19.40
2018-09-27T16:31:52.958Z,19.43
2018-09-27T16:34:21.063Z,19.47
2018-09-27T16:36:49.182Z,19.36
2018-09-27T16:39:17.285Z,19.29
2018-09-27T16:41:45.487Z,19.29
2018-09-27T16:44:13.579Z,19.35
2018-09-27T16:46:41.753Z,19.35
2018-09-27T16:49:09.828Z,19.29
2018-09-27T16:51:37.915Z,19.27
2018-09-27T16:54:06.066Z,19.19
2018-09-27T16:56:34.208Z,19.07
2018-09-27T16:59:02.318Z,19.06
2018-09-27T17:01:30.413Z,19.02
2018-09-27T17:03:58.540Z,19.02
2018-09-27T17:06:26.654Z,19.03
2018-09-27T17:08:54.783Z,19.12
2018-09-27T17:11:22.872Z,19.18
2018-09-27T17:13:50.966Z,19.12
2018-09-27T17:16:19.057Z,19.12
2018-09-27T17:18:47.397Z,18.99
2018-09-27T17:21:15.494Z,19.00
2018-09-27T17:23:43.995Z,18.91
2018-09-27T17:26:11.887Z,18.86
2018-09-27T17:28:40.009Z,18.88
2018-09-27T17:31:08.499Z,18.88
2018-09-27T17:33:36.611Z,18.90
2018-09-27T17:36:04.722Z,18.88
2018-09-27T17:38:32.802Z,18.82
2018-09-27T17:41:03.578Z,18.81
2018-09-27T17:43:31.679Z,18.76
2018-09-27T17:45:59.777Z,18.71
2018-09-27T17:48:27.879Z,18.66
2018-09-27T17:50:55.983Z,18.59
2018-09-27T17:53:24.240Z,18.61
2018-09-27T17:55:52.315Z,18.63
2018-09-27T17:58:20.461Z,18.62
2018-09-27T18:00:48.567Z,18.54
2018-09-27T18:03:16.660Z,18.42
2018-09-27T18:05:44.818Z,18.40
2018-09-27T18:08:12.920Z,18.38
2018-09-27T18:10:41.038Z,18.26
2018-09-27T18:13:09.135Z,18.19
2018-09-27T18:15:37.263Z,18.11
2018-09-27T18:18:05.383Z,18.00
2018-09-27T18:20:33.495Z,18.00
2018-09-27T18:23:01.641Z,17.90
2018-09-27T18:25:29.778Z,17.82
2018-09-27T18:27:57.859Z,17.87
2018-09-27T18:30:25.926Z,17.81
2018-09-27T18:32:54.058Z,17.75
2018-09-27T18:35:22.212Z,17.68
2018-09-27T18:37:50.379Z,17.61
2018-09-27T18:40:18.457Z,17.49
2018-09-27T18:42:46.508Z,17.41
2018-09-27T18:45:14.647Z,17.33
2018-09-27T18:47:42.743Z,17.30
2018-09-27T18:50:11.097Z,17.28
2018-09-27T18:52:39.190Z,17.30
2018-09-27T18:55:07.642Z,17.32
2018-09-27T18:57:35.783Z,17.28
2018-09-27T19:00:03.949Z,17.23
2018-09-27T19:02:32.039Z,17.21
2018-09-27T19:05:00.165Z,17.20
2018-09-27T19:07:28.215Z,17.14
2018-09-27T19:10:59.618Z,17.03
2018-09-27T19:13:27.670Z,16.85
2018-09-27T19:15:55.723Z,16.74
2018-09-27T19:18:23.774Z,16.72
2018-09-27T19:20:52.225Z,16.65
2018-09-27T19:23:20.288Z,16.64
2018-09-27T19:25:48.372Z,16.61
2018-09-27T19:28:16.577Z,16.51
2018-09-27T19:30:44.602Z,16.45
2018-09-27T19:33:12.676Z,16.47
2018-09-27T19:35:40.835Z,16.41
2018-09-27T19:38:08.884Z,16.37
2018-09-27T19:40:36.932Z,16.30
2018-09-27T19:43:05.206Z,16.26
2018-09-27T19:45:33.279Z,16.16
2018-09-27T19:48:01.335Z,16.20
2018-09-27T19:50:29.599Z,16.20
2018-09-27T19:52:57.682Z,16.20
2018-09-27T19:55:26.029Z,16.21
2018-09-27T19:57:54.108Z,16.22
2018-09-27T20:00:22.155Z,16.19
2018-09-27T20:02:50.215Z,16.17
2018-09-27T20:05:18.278Z,16.04
2018-09-27T20:07:46.364Z,16.01
2018-09-27T20:10:14.494Z,15.97
2018-09-27T20:12:42.531Z,16.03
2018-09-27T20:15:10.626Z,16.07
2018-09-27T20:17:38.662Z,15.93
2018-09-27T20:20:06.739Z,15.97
2018-09-27T20:22:34.886Z,15.92
2018-09-27T20:25:02.886Z,15.92
2018-09-27T20:27:30.996Z,15.88
2018-09-27T20:29:59.067Z,15.90
2018-09-27T20:32:27.142Z,15.86
2018-09-27T20:34:55.293Z,15.86
2018-09-27T20:37:23.288Z,15.96
2018-09-27T20:39:51.371Z,15.86
2018-09-27T20:42:19.420Z,15.99
2018-09-27T20:44:47.482Z,16.02
2018-09-27T20:47:15.555Z,16.08
2018-09-27T20:49:43.680Z,16.15
2018-09-27T20:52:11.761Z,16.07
2018-09-27T20:54:39.879Z,16.11
2018-09-27T20:57:08.270Z,16.12
2018-09-27T20:59:36.346Z,16.16
2018-09-27T21:02:04.443Z,16.14
2018-09-27T21:04:32.515Z,16.08
2018-09-27T21:07:00.597Z,15.99
2018-09-27T21:09:28.675Z,16.00
2018-09-27T21:11:56.710Z,15.95
2018-09-27T21:14:24.875Z,15.97
2018-09-27T21:16:52.948Z,15.93
2018-09-27T21:19:21.030Z,15.94
2018-09-27T21:21:49.088Z,15.84
2018-09-27T21:24:17.180Z,15.82
2018-09-27T21:26:45.235Z,15.78
2018-09-27T21:29:13.342Z,15.69
2018-09-27T21:31:41.448Z,15.64
2018-09-27T21:34:09.525Z,15.74
2018-09-27T21:36:37.588Z,15.75
2018-09-27T21:39:06.601Z,15.80
2018-09-27T21:41:34.668Z,15.86
2018-09-27T21:44:02.942Z,15.83
2018-09-27T21:46:31.011Z,15.85
2018-09-27T21:48:59.063Z,15.89
2018-09-27T21:51:27.126Z,15.97
2018-09-27T21:53:55.204Z,16.06
2018-09-27T21:56:23.302Z,16.16
2018-09-27T21:58:51.363Z,16.22
2018-09-27T22:01:19.439Z,16.24
2018-09-27T22:03:47.531Z,16.20
2018-09-27T22:06:15.607Z,16.23
2018-09-27T22:08:43.735Z,16.20
2018-09-27T22:11:12.024Z,16.16
2018-09-27T22:13:40.103Z,16.13
2018-09-27T22:16:08.178Z,16.15
2018-09-27T22:18:36.648Z,16.14
2018-09-27T22:21:04.762Z,16.23
2018-09-27T22:23:32.819Z,16.17
2018-09-27T22:26:00.959Z,16.05
2018-09-27T22:28:29.093Z,15.92
2018-09-27T22:30:57.115Z,15.90
2018-09-27T22:33:25.211Z,15.94
2018-09-27T22:35:53.319Z,15.79
2018-09-27T22:38:21.424Z,15.77
2018-09-27T22:40:49.503Z,15.76
2018-09-27T22:43:17.663Z,15.56
2018-09-27T22:45:45.742Z,15.61
2018-09-27T22:48:13.782Z,15.54
2018-09-27T22:50:41.870Z,15.65
2018-09-27T22:53:09.970Z,15.68
2018-09-27T22:55:38.064Z,15.69
2018-09-27T22:58:06.163Z,15.61
2018-09-27T23:00:34.275Z,15.65
2018-09-27T23:03:02.323Z,15.72
2018-09-27T23:05:30.399Z,15.58
2018-09-27T23:07:58.490Z,15.41
2018-09-27T23:10:26.571Z,15.47
2018-09-27T23:12:54.666Z,15.46
2018-09-27T23:15:22.747Z,15.48
2018-09-27T23:17:50.799Z,15.41
2018-09-27T23:20:18.859Z,15.36
2018-09-27T23:22:46.918Z,15.35
2018-09-27T23:25:14.991Z,15.34
2018-09-27T23:27:43.103Z,15.24
2018-09-27T23:30:11.202Z,15.31
2018-09-27T23:32:39.254Z,15.34
2018-09-27T23:35:07.483Z,15.35
2018-09-27T23:37:35.734Z,15.35
2018-09-27T23:40:03.916Z,15.36
2018-09-27T23:42:31.999Z,15.30
2018-09-27T23:45:00.067Z,15.23
2018-09-27T23:47:28.139Z,15.26
2018-09-27T23:49:57.026Z,15.29
2018-09-27T23:52:25.116Z,15.21
2018-09-27T23:54:53.402Z,15.14
2018-09-27T23:57:21.470Z,14.99
2018-09-27T23:59:49.567Z,14.95
